UKON/NLV METAR and TAF weather

Enter ICAO airport designator
Station Type Date Time Source
UKON METAR 2021/07/30 06:00 UTC NOAA

UKON 300600Z 34004MPS CAVOK 23/19 Q1011 R22/190070 NOSIG


Station Type Date Time Source
UKON Decoded METAR 2021/07/30 06:00 UTC NOAA

Mykolaiv, Ukraine (UKON) 47-03-29N 031-55-15E
Jul 30, 2021 - 02:00 AM EDT / 2021.07.30 0600 UTC
Wind: from the NNW (340 degrees) at 9 MPH (8 KT):0
Visibility: greater than 7 mile(s):0
Temperature: 73 F (23 C)
Dew Point: 66 F (19 C)
Relative Humidity: 78%
Pressure (altimeter): 29.85 in. Hg (1011 hPa)
ob: UKON 300600Z 34004MPS CAVOK 23/19 Q1011 R22/190070 NOSIG
cycle: 6

Station Type Date Time Source
UKON TAF 2018/11/06 15:06 UTC NOAA

TAF
AMD TAF
AMD UKON 061502Z 0615/0724 CNL

Example: see airport list